createdAt,value
2018-07-08T00:00:06.444Z,1013.74
2018-07-08T00:00:46.750Z,1013.75
2018-07-08T00:01:27.162Z,1013.76
2018-07-08T00:02:07.610Z,1013.73
2018-07-08T00:02:48.010Z,1013.75
2018-07-08T00:03:28.442Z,1013.76
2018-07-08T00:04:08.850Z,1013.75
2018-07-08T00:04:49.250Z,1013.73
2018-07-08T00:05:29.626Z,1013.7
2018-07-08T00:06:10.115Z,1013.76
2018-07-08T00:06:50.552Z,1013.75
2018-07-08T00:07:30.965Z,1013.75
2018-07-08T00:08:11.297Z,1013.73
2018-07-08T00:08:51.820Z,1013.79
2018-07-08T00:09:32.257Z,1013.77
2018-07-08T00:10:12.721Z,1013.75
2018-07-08T00:10:53.086Z,1013.8
2018-07-08T00:11:33.674Z,1013.77
2018-07-08T00:12:13.973Z,1013.79
2018-07-08T00:12:54.363Z,1013.8
2018-07-08T00:13:34.804Z,1013.82
2018-07-08T00:14:15.206Z,1013.81
2018-07-08T00:14:55.611Z,1013.84
2018-07-08T00:15:36.010Z,1013.83
2018-07-08T00:16:16.389Z,1013.83
2018-07-08T00:16:56.872Z,1013.84
2018-07-08T00:17:37.232Z,1013.87
2018-07-08T00:18:17.665Z,1013.86
2018-07-08T00:18:58.015Z,1013.88
2018-07-08T00:19:38.480Z,1013.83
2018-07-08T00:20:18.808Z,1013.87
2018-07-08T00:20:59.261Z,1013.91
2018-07-08T00:21:39.669Z,1013.87
2018-07-08T00:22:20.114Z,1013.88
2018-07-08T00:23:00.531Z,1013.87
2018-07-08T00:23:41.163Z,1013.86
2018-07-08T00:24:21.367Z,1013.85
2018-07-08T00:25:01.912Z,1013.86
2018-07-08T00:25:42.380Z,1013.86
2018-07-08T00:26:22.689Z,1013.89
2018-07-08T00:27:03.093Z,1013.87
2018-07-08T00:27:43.509Z,1013.88
2018-07-08T00:28:23.885Z,1013.91
2018-07-08T00:29:04.344Z,1013.88
2018-07-08T00:29:44.698Z,1013.87
2018-07-08T00:30:25.058Z,1013.88
2018-07-08T00:31:05.434Z,1013.89
2018-07-08T00:31:45.897Z,1013.89
2018-07-08T00:32:26.366Z,1013.87
2018-07-08T00:33:06.875Z,1013.89
2018-07-08T00:33:47.243Z,1013.89
2018-07-08T00:34:27.682Z,1013.87
2018-07-08T00:35:08.025Z,1013.88
2018-07-08T00:35:48.521Z,1013.91
2018-07-08T00:38:07.933Z,1013.92
2018-07-08T00:38:47.821Z,1013.9
2018-07-08T00:39:28.196Z,1013.9
2018-07-08T00:40:08.631Z,1013.88
2018-07-08T00:40:49.062Z,1013.84
2018-07-08T00:41:29.390Z,1013.88
2018-07-08T00:42:09.905Z,1013.85
2018-07-08T00:42:50.294Z,1013.87
2018-07-08T00:43:30.738Z,1013.83
2018-07-08T00:44:11.109Z,1013.86
2018-07-08T00:44:51.506Z,1013.88
2018-07-08T00:45:32.114Z,1013.87
2018-07-08T00:46:12.416Z,1013.92
2018-07-08T00:46:52.742Z,1013.91
2018-07-08T00:47:33.183Z,1013.88
2018-07-08T00:48:13.584Z,1013.86
2018-07-08T00:48:53.952Z,1013.86
2018-07-08T00:49:34.456Z,1013.88
2018-07-08T00:50:14.799Z,1013.86
2018-07-08T00:50:55.195Z,1013.83
2018-07-08T00:51:35.699Z,1013.88
2018-07-08T00:52:16.159Z,1013.88
2018-07-08T00:52:56.446Z,1013.88
2018-07-08T00:53:36.799Z,1013.93
2018-07-08T00:54:17.235Z,1013.88
2018-07-08T00:54:57.656Z,1013.86
2018-07-08T00:55:38.102Z,1013.85
2018-07-08T00:56:18.597Z,1013.9
2018-07-08T00:56:58.891Z,1013.86
2018-07-08T00:57:39.379Z,1013.86
2018-07-08T00:58:19.741Z,1013.87
2018-07-08T00:59:00.201Z,1013.87
2018-07-08T00:59:40.760Z,1013.88
2018-07-08T01:00:21.129Z,1013.88
2018-07-08T01:01:01.525Z,1013.9
2018-07-08T01:01:41.976Z,1013.85
2018-07-08T01:02:22.348Z,1013.91
2018-07-08T01:03:02.702Z,1013.87
2018-07-08T01:03:43.149Z,1013.89
2018-07-08T01:04:23.579Z,1013.89
2018-07-08T01:05:04.008Z,1013.94
2018-07-08T01:05:44.367Z,1013.92
2018-07-08T01:06:24.792Z,1013.91
2018-07-08T01:07:05.179Z,1013.91
2018-07-08T01:07:45.597Z,1013.95
2018-07-08T01:08:26.004Z,1013.95
2018-07-08T01:09:06.372Z,1013.96
2018-07-08T01:09:46.833Z,1013.96
2018-07-08T01:10:27.229Z,1013.96
2018-07-08T01:11:07.752Z,1013.95
2018-07-08T01:11:48.053Z,1013.94
2018-07-08T01:12:28.479Z,1013.95
2018-07-08T01:13:08.832Z,1013.95
2018-07-08T01:13:49.223Z,1014.01
2018-07-08T01:14:29.633Z,1014.01
2018-07-08T01:15:12.984Z,1014.02
2018-07-08T01:15:53.453Z,1014.04
2018-07-08T01:16:33.743Z,1014.07
2018-07-08T01:17:14.185Z,1014.04
2018-07-08T01:17:54.580Z,1014.05
2018-07-08T01:18:35.289Z,1014.04
2018-07-08T01:19:15.438Z,1013.98
2018-07-08T01:19:55.925Z,1014.03
2018-07-08T01:20:36.252Z,1014.02
2018-07-08T01:21:16.724Z,1014.01
2018-07-08T01:21:57.189Z,1014.03
2018-07-08T01:22:37.540Z,1014.04
2018-07-08T01:23:17.908Z,1014.03
2018-07-08T01:23:58.538Z,1014.03
2018-07-08T01:24:38.678Z,1014.04
2018-07-08T01:25:19.096Z,1014.05
2018-07-08T01:25:59.538Z,1014.04
2018-07-08T01:26:39.957Z,1014.01
2018-07-08T01:27:20.333Z,1014.02
2018-07-08T01:28:00.710Z,1014.06
2018-07-08T01:28:41.149Z,1014.02
2018-07-08T01:29:21.504Z,1014.06
2018-07-08T01:30:01.931Z,1014
2018-07-08T01:30:42.408Z,1014.05
2018-07-08T01:31:22.737Z,1014.06
2018-07-08T01:32:03.283Z,1014.04
2018-07-08T01:32:43.581Z,1014.07
2018-07-08T01:33:24.037Z,1014.07
2018-07-08T01:34:04.422Z,1014.09
2018-07-08T01:34:44.818Z,1014.11
2018-07-08T01:35:25.238Z,1014.07
2018-07-08T01:36:05.743Z,1014.11
2018-07-08T01:36:46.088Z,1014.09
2018-07-08T01:37:26.597Z,1014.13
2018-07-08T01:38:06.942Z,1014.11
2018-07-08T01:38:47.279Z,1014.1
2018-07-08T01:39:28.080Z,1014.11
2018-07-08T01:40:08.508Z,1014.09
2018-07-08T01:40:48.870Z,1014.14
2018-07-08T01:41:29.278Z,1014.09
2018-07-08T01:42:09.744Z,1014.1
2018-07-08T01:42:50.282Z,1014.13
2018-07-08T01:43:30.542Z,1014.09
2018-07-08T01:44:11.221Z,1014.1
2018-07-08T01:44:51.518Z,1014.12
2018-07-08T01:45:31.902Z,1014.09
2018-07-08T01:46:12.348Z,1014.13
2018-07-08T01:46:52.848Z,1014.11
2018-07-08T01:47:33.198Z,1014.16
2018-07-08T01:48:13.628Z,1014.11
2018-07-08T01:48:54.058Z,1014.11
2018-07-08T01:49:34.516Z,1014.11
2018-07-08T01:50:14.862Z,1014.15
2018-07-08T01:50:55.331Z,1014.15
2018-07-08T01:51:35.660Z,1014.13
2018-07-08T01:52:16.137Z,1014.09
2018-07-08T01:52:56.587Z,1014.14
2018-07-08T01:53:37.025Z,1014.11
2018-07-08T01:54:17.426Z,1014.14
2018-07-08T01:54:57.771Z,1014.14
2018-07-08T01:55:38.163Z,1014.15
2018-07-08T01:56:18.685Z,1014.16
2018-07-08T01:56:59.034Z,1014.15
2018-07-08T01:57:39.475Z,1014.17
2018-07-08T01:58:19.891Z,1014.19
2018-07-08T01:59:00.343Z,1014.17
2018-07-08T01:59:40.816Z,1014.19
2018-07-08T02:00:21.063Z,1014.21
2018-07-08T02:01:01.471Z,1014.21
2018-07-08T02:01:41.850Z,1014.22
2018-07-08T02:02:22.333Z,1014.23
2018-07-08T02:03:02.715Z,1014.27
2018-07-08T02:03:43.166Z,1014.28
2018-07-08T02:04:23.746Z,1014.23
2018-07-08T02:05:04.068Z,1014.26
2018-07-08T02:05:44.733Z,1014.25
2018-07-08T02:06:25.072Z,1014.26
2018-07-08T02:07:05.568Z,1014.29
2018-07-08T02:07:45.898Z,1014.28
2018-07-08T02:08:26.226Z,1014.25
2018-07-08T02:09:06.679Z,1014.3
2018-07-08T02:09:47.039Z,1014.29
2018-07-08T02:10:27.535Z,1014.31
2018-07-08T02:11:07.890Z,1014.31
2018-07-08T02:11:48.315Z,1014.3
2018-07-08T02:12:28.704Z,1014.26
2018-07-08T02:13:09.119Z,1014.29
2018-07-08T02:13:49.512Z,1014.32
2018-07-08T02:14:29.929Z,1014.29
2018-07-08T02:15:10.320Z,1014.3
2018-07-08T02:15:50.771Z,1014.33
2018-07-08T02:16:31.225Z,1014.31
2018-07-08T02:17:11.647Z,1014.33
2018-07-08T02:17:51.997Z,1014.34
2018-07-08T02:18:32.445Z,1014.33
2018-07-08T02:19:12.822Z,1014.26
2018-07-08T02:19:53.321Z,1014.33
2018-07-08T02:20:33.758Z,1014.33
2018-07-08T02:21:14.140Z,1014.32
2018-07-08T02:21:54.567Z,1014.35
2018-07-08T02:22:34.988Z,1014.35
2018-07-08T02:23:15.354Z,1014.34
2018-07-08T02:23:55.840Z,1014.34
2018-07-08T02:24:36.264Z,1014.37
2018-07-08T02:25:16.756Z,1014.36
2018-07-08T02:25:57.073Z,1014.36
2018-07-08T02:26:37.555Z,1014.35
2018-07-08T02:27:18.020Z,1014.39
2018-07-08T02:27:58.486Z,1014.37
2018-07-08T02:28:38.870Z,1014.4
2018-07-08T02:29:19.237Z,1014.37
2018-07-08T02:29:59.651Z,1014.34
2018-07-08T02:30:40.007Z,1014.33
2018-07-08T02:31:20.446Z,1014.36
2018-07-08T02:32:00.863Z,1014.39
2018-07-08T02:32:41.294Z,1014.38
2018-07-08T02:33:21.784Z,1014.41
2018-07-08T02:34:02.160Z,1014.38
2018-07-08T02:34:42.593Z,1014.37
2018-07-08T02:35:23.027Z,1014.36
2018-07-08T02:36:03.424Z,1014.39
2018-07-08T02:36:46.541Z,1014.37
2018-07-08T02:37:26.953Z,1014.34
2018-07-08T02:38:07.377Z,1014.35
2018-07-08T02:38:47.872Z,1014.36
2018-07-08T02:39:28.252Z,1014.34
2018-07-08T02:40:08.748Z,1014.36
2018-07-08T02:40:49.059Z,1014.32
2018-07-08T02:42:41.617Z,1014.29
2018-07-08T02:43:21.938Z,1014.31
2018-07-08T02:44:02.431Z,1014.3
2018-07-08T02:44:42.770Z,1014.31
2018-07-08T02:45:23.200Z,1014.28
2018-07-08T02:46:03.595Z,1014.27
2018-07-08T02:46:44.032Z,1014.28
2018-07-08T02:47:24.471Z,1014.24
2018-07-08T02:48:04.812Z,1014.26
2018-07-08T02:48:45.259Z,1014.26
2018-07-08T02:49:25.690Z,1014.26
2018-07-08T02:50:06.143Z,1014.28
2018-07-08T02:50:46.471Z,1014.26
2018-07-08T02:51:26.942Z,1014.25
2018-07-08T02:52:07.427Z,1014.26
2018-07-08T02:52:47.746Z,1014.24
2018-07-08T02:53:28.156Z,1014.3
2018-07-08T02:54:08.558Z,1014.29
2018-07-08T02:54:49.023Z,1014.27
2018-07-08T02:55:29.369Z,1014.34
2018-07-08T02:56:09.818Z,1014.31
2018-07-08T02:56:50.209Z,1014.31
2018-07-08T02:57:30.699Z,1014.32
2018-07-08T02:58:11.048Z,1014.28
2018-07-08T02:58:51.473Z,1014.3
2018-07-08T02:59:31.931Z,1014.3
2018-07-08T03:00:12.307Z,1014.33
2018-07-08T03:00:52.786Z,1014.32
2018-07-08T03:01:33.175Z,1014.31
2018-07-08T03:02:13.573Z,1014.31
2018-07-08T03:02:54.070Z,1014.34
2018-07-08T03:03:34.387Z,1014.32
2018-07-08T03:04:14.787Z,1014.32
2018-07-08T03:04:55.187Z,1014.34
2018-07-08T03:05:35.635Z,1014.37
2018-07-08T03:06:15.989Z,1014.33
2018-07-08T03:06:56.433Z,1014.35
2018-07-08T03:07:36.876Z,1014.37
2018-07-08T03:08:17.282Z,1014.35
2018-07-08T03:08:57.681Z,1014.36
2018-07-08T03:09:38.091Z,1014.35
2018-07-08T03:10:18.528Z,1014.37
2018-07-08T03:10:58.981Z,1014.35
2018-07-08T03:11:39.413Z,1014.37
2018-07-08T03:12:19.800Z,1014.4
2018-07-08T03:13:00.185Z,1014.36
2018-07-08T03:13:40.659Z,1014.38
2018-07-08T03:14:20.954Z,1014.38
2018-07-08T03:15:01.394Z,1014.35
2018-07-08T03:15:41.831Z,1014.4
2018-07-08T03:16:22.256Z,1014.37
2018-07-08T03:17:02.770Z,1014.38
2018-07-08T03:17:43.125Z,1014.38
2018-07-08T03:18:23.586Z,1014.37
2018-07-08T03:19:04.058Z,1014.36
2018-07-08T03:19:44.498Z,1014.35
2018-07-08T03:20:24.905Z,1014.33
2018-07-08T03:21:05.254Z,1014.38
2018-07-08T03:21:45.712Z,1014.4
2018-07-08T03:22:26.195Z,1014.38
2018-07-08T03:23:06.692Z,1014.41
2018-07-08T03:23:47.070Z,1014.41
2018-07-08T03:24:27.496Z,1014.43
2018-07-08T03:25:07.811Z,1014.39
2018-07-08T03:25:48.309Z,1014.39
2018-07-08T03:26:28.666Z,1014.4
2018-07-08T03:27:09.229Z,1014.42
2018-07-08T03:27:49.520Z,1014.39
2018-07-08T03:28:30.024Z,1014.38
2018-07-08T03:29:10.288Z,1014.39
2018-07-08T03:29:50.697Z,1014.39
2018-07-08T03:30:31.114Z,1014.41
2018-07-08T03:31:11.628Z,1014.4
2018-07-08T03:31:52.001Z,1014.36
2018-07-08T03:32:32.419Z,1014.42
2018-07-08T03:33:12.883Z,1014.39
2018-07-08T03:33:53.384Z,1014.39
2018-07-08T03:34:33.678Z,1014.41
2018-07-08T03:35:14.206Z,1014.39
2018-07-08T03:37:27.675Z,1014.42
2018-07-08T03:38:08.398Z,1014.41
2018-07-08T03:38:48.782Z,1014.4
2018-07-08T03:39:29.284Z,1014.46
2018-07-08T03:40:09.634Z,1014.45
2018-07-08T03:40:50.057Z,1014.46
2018-07-08T03:41:30.462Z,1014.49
2018-07-08T03:42:11.725Z,1014.46
2018-07-08T03:42:51.539Z,1014.49
2018-07-08T03:43:31.928Z,1014.47
2018-07-08T03:44:12.359Z,1014.48
2018-07-08T03:44:52.774Z,1014.49
2018-07-08T03:45:33.210Z,1014.53
2018-07-08T03:46:13.544Z,1014.53
2018-07-08T03:46:53.981Z,1014.52
2018-07-08T03:47:34.426Z,1014.49
2018-07-08T03:48:14.869Z,1014.47
2018-07-08T03:48:55.306Z,1014.47
2018-07-08T03:49:35.804Z,1014.46
2018-07-08T03:50:16.197Z,1014.46
2018-07-08T03:50:56.598Z,1014.44
2018-07-08T03:51:36.956Z,1014.46
2018-07-08T03:52:17.383Z,1014.45
2018-07-08T03:52:57.792Z,1014.47
2018-07-08T03:53:38.263Z,1014.48
2018-07-08T03:54:18.811Z,1014.48
2018-07-08T03:54:59.109Z,1014.46
2018-07-08T03:55:39.515Z,1014.51
2018-07-08T03:56:19.921Z,1014.48
2018-07-08T03:57:00.354Z,1014.47
2018-07-08T03:57:40.818Z,1014.49
2018-07-08T03:58:21.442Z,1014.46
2018-07-08T03:59:01.764Z,1014.45
2018-07-08T03:59:42.203Z,1014.48
2018-07-08T04:00:22.638Z,1014.47
2018-07-08T04:01:02.996Z,1014.46
2018-07-08T04:01:43.448Z,1014.5
2018-07-08T04:02:23.961Z,1014.51
2018-07-08T04:03:04.374Z,1014.49
2018-07-08T04:03:44.729Z,1014.5
2018-07-08T04:44:28.850Z,1014.98
2018-07-08T04:45:09.065Z,1014.99
2018-07-08T04:45:49.612Z,1015.01
2018-07-08T04:46:29.972Z,1015
2018-07-08T04:47:10.383Z,1015.03
2018-07-08T04:47:50.756Z,1015.06
2018-07-08T04:48:31.227Z,1015.11
2018-07-08T04:49:11.684Z,1015.12
2018-07-08T04:49:52.048Z,1015.12
2018-07-08T04:50:32.413Z,1015.13
2018-07-08T04:51:12.782Z,1015.16
2018-07-08T04:51:53.240Z,1015.18
2018-07-08T04:52:33.599Z,1015.17
2018-07-08T04:53:14.102Z,1015.19
2018-07-08T04:53:54.523Z,1015.13
2018-07-08T04:54:34.886Z,1015.15
2018-07-08T04:55:15.313Z,1015.15
2018-07-08T04:55:55.727Z,1015.12
2018-07-08T04:56:36.116Z,1015.18
2018-07-08T04:57:16.555Z,1015.18
2018-07-08T04:57:56.976Z,1015.18
2018-07-08T04:58:38.113Z,1015.2
2018-07-08T04:59:18.366Z,1015.2
2018-07-08T04:59:58.748Z,1015.21
2018-07-08T05:00:39.189Z,1015.23
2018-07-08T05:01:19.733Z,1015.25
2018-07-08T05:02:00.158Z,1015.21
2018-07-08T05:02:40.825Z,1015.28
2018-07-08T05:03:21.083Z,1015.29
2018-07-08T05:04:01.746Z,1015.27
2018-07-08T05:04:42.476Z,1015.28
2018-07-08T05:05:23.037Z,1015.32
2018-07-08T05:06:03.918Z,1015.28
2018-07-08T05:06:44.418Z,1015.29
2018-07-08T05:07:24.747Z,1015.32
2018-07-08T05:08:05.942Z,1015.35
2018-07-08T05:08:46.199Z,1015.34
2018-07-08T05:09:26.685Z,1015.32
2018-07-08T05:10:07.365Z,1015.41
2018-07-08T05:10:47.784Z,1015.42
2018-07-08T05:11:28.498Z,1015.39
2018-07-08T05:12:08.715Z,1015.45
2018-07-08T05:12:49.339Z,1015.45
2018-07-08T05:13:30.269Z,1015.4
2018-07-08T05:14:10.842Z,1015.42
2018-07-08T05:14:51.270Z,1015.42
2018-07-08T05:15:31.712Z,1015.44
2018-07-08T05:16:12.698Z,1015.44
2018-07-08T05:16:53.186Z,1015.45
2018-07-08T05:17:33.510Z,1015.48
2018-07-08T05:18:14.464Z,1015.48
2018-07-08T05:18:54.778Z,1015.44
2018-07-08T05:19:35.219Z,1015.46
2018-07-08T05:20:15.654Z,1015.45
2018-07-08T05:20:56.072Z,1015.47
2018-07-08T05:21:36.477Z,1015.44
2018-07-08T05:22:16.846Z,1015.44
2018-07-08T05:22:57.324Z,1015.44
2018-07-08T05:23:37.822Z,1015.42
2018-07-08T05:24:18.316Z,1015.44
2018-07-08T05:24:58.626Z,1015.41
2018-07-08T05:25:39.041Z,1015.47
2018-07-08T05:26:19.595Z,1015.39
2018-07-08T05:27:00.090Z,1015.4
2018-07-08T05:27:40.666Z,1015.39
2018-07-08T05:28:21.340Z,1015.39
2018-07-08T05:29:01.856Z,1015.35
2018-07-08T05:29:43.215Z,1015.38
2018-07-08T05:30:23.614Z,1015.38
2018-07-08T05:31:04.103Z,1015.37
2018-07-08T05:31:44.515Z,1015.34
2018-07-08T05:32:25.296Z,1015.38
2018-07-08T05:33:05.748Z,1015.39
2018-07-08T05:33:46.223Z,1015.39
2018-07-08T05:34:26.624Z,1015.4
2018-07-08T05:35:07.119Z,1015.42
2018-07-08T05:35:47.541Z,1015.4
2018-07-08T05:36:28.076Z,1015.36
2018-07-08T05:37:08.471Z,1015.38
2018-07-08T05:37:49.000Z,1015.4
2018-07-08T05:38:29.375Z,1015.38
2018-07-08T05:39:10.281Z,1015.39
2018-07-08T05:39:50.680Z,1015.38
2018-07-08T05:40:31.214Z,1015.39
2018-07-08T05:41:11.665Z,1015.38
2018-07-08T05:43:27.206Z,1015.37
2018-07-08T05:44:07.453Z,1015.36
2018-07-08T05:44:47.948Z,1015.36
2018-07-08T05:45:28.359Z,1015.39
2018-07-08T05:46:08.746Z,1015.42
2018-07-08T05:46:49.339Z,1015.39
2018-07-08T05:47:29.602Z,1015.41
2018-07-08T05:49:58.523Z,1015.47
2018-07-08T05:50:39.804Z,1015.47
2018-07-08T05:51:20.105Z,1015.48
2018-07-08T05:52:00.565Z,1015.45
2018-07-08T05:52:40.933Z,1015.49
2018-07-08T05:53:21.383Z,1015.47
2018-07-08T05:54:01.785Z,1015.5
2018-07-08T05:54:42.334Z,1015.46
2018-07-08T05:55:22.679Z,1015.43
2018-07-08T05:56:03.080Z,1015.44
2018-07-08T05:56:43.485Z,1015.44
2018-07-08T05:57:24.033Z,1015.47
2018-07-08T05:58:04.448Z,1015.48
2018-07-08T05:58:46.005Z,1015.48
2018-07-08T05:59:26.010Z,1015.49
2018-07-08T06:00:06.427Z,1015.48
2018-07-08T06:00:46.836Z,1015.48
2018-07-08T06:01:27.231Z,1015.48
2018-07-08T06:02:07.647Z,1015.52
2018-07-08T06:02:48.384Z,1015.49
2018-07-08T06:03:28.834Z,1015.47
2018-07-08T06:04:09.254Z,1015.52
2018-07-08T06:04:49.705Z,1015.56
2018-07-08T06:05:30.467Z,1015.58
2018-07-08T06:06:10.908Z,1015.57
2018-07-08T06:06:51.472Z,1015.58
2018-07-08T06:07:31.666Z,1015.57
2018-07-08T06:08:12.154Z,1015.58
2018-07-08T06:08:52.540Z,1015.55
2018-07-08T06:09:32.988Z,1015.56
2018-07-08T06:10:14.530Z,1015.55
2018-07-08T06:10:54.988Z,1015.54
2018-07-08T06:11:35.390Z,1015.54
2018-07-08T06:12:15.852Z,1015.57
2018-07-08T06:12:56.195Z,1015.55
2018-07-08T06:13:36.704Z,1015.57
2018-07-08T06:14:17.389Z,1015.54
2018-07-08T06:14:57.801Z,1015.51
2018-07-08T06:15:38.404Z,1015.55
2018-07-08T06:17:36.119Z,1015.53
2018-07-08T06:18:16.335Z,1015.51
2018-07-08T06:18:56.781Z,1015.53
2018-07-08T06:19:37.220Z,1015.53
2018-07-08T06:20:17.612Z,1015.53
2018-07-08T06:20:58.105Z,1015.52
2018-07-08T06:21:38.872Z,1015.5
2018-07-08T06:22:19.019Z,1015.53
2018-07-08T06:22:59.379Z,1015.52
2018-07-08T06:23:39.803Z,1015.54
2018-07-08T06:24:20.225Z,1015.53
2018-07-08T06:26:12.949Z,1015.53
2018-07-08T06:26:53.052Z,1015.55
2018-07-08T06:27:33.463Z,1015.53
2018-07-08T06:28:13.838Z,1015.54
2018-07-08T06:28:54.274Z,1015.51
2018-07-08T06:29:34.764Z,1015.52
2018-07-08T06:30:15.901Z,1015.5
2018-07-08T06:30:56.101Z,1015.52
2018-07-08T06:31:36.711Z,1015.5
2018-07-08T06:32:17.058Z,1015.48
2018-07-08T06:32:57.498Z,1015.48
2018-07-08T06:33:37.979Z,1015.46
2018-07-08T06:34:18.382Z,1015.49
2018-07-08T06:34:58.810Z,1015.49
2018-07-08T06:35:39.196Z,1015.49
2018-07-08T06:36:19.648Z,1015.47
2018-07-08T06:37:00.005Z,1015.52
2018-07-08T06:37:40.527Z,1015.48
2018-07-08T06:38:20.875Z,1015.46
2018-07-08T06:39:01.302Z,1015.4
2018-07-08T06:39:41.724Z,1015.44
2018-07-08T06:40:22.134Z,1015.41
2018-07-08T06:41:02.553Z,1015.47
2018-07-08T06:41:42.997Z,1015.47
2018-07-08T06:42:23.691Z,1015.45
2018-07-08T06:43:04.080Z,1015.47
2018-07-08T06:43:45.581Z,1015.46
2018-07-08T06:44:25.985Z,1015.48
2018-07-08T06:45:06.462Z,1015.46
2018-07-08T06:45:46.808Z,1015.48
2018-07-08T06:46:27.186Z,1015.46
2018-07-08T06:47:07.622Z,1015.46
2018-07-08T06:47:49.005Z,1015.45
2018-07-08T06:48:30.118Z,1015.48
2018-07-08T06:49:10.543Z,1015.45
2018-07-08T06:49:50.956Z,1015.47
2018-07-08T06:50:31.523Z,1015.5
2018-07-08T06:51:11.987Z,1015.47
2018-07-08T06:51:52.375Z,1015.47
2018-07-08T06:52:32.772Z,1015.47
2018-07-08T06:53:13.223Z,1015.47
2018-07-08T06:53:53.685Z,1015.49
2018-07-08T06:54:34.077Z,1015.51
2018-07-08T06:55:14.978Z,1015.46
2018-07-08T06:55:55.371Z,1015.47
2018-07-08T06:56:35.842Z,1015.48
2018-07-08T06:57:16.203Z,1015.51
2018-07-08T06:57:56.876Z,1015.49
2018-07-08T06:58:37.288Z,1015.49
2018-07-08T06:59:18.164Z,1015.5
2018-07-08T06:59:58.627Z,1015.52
2018-07-08T07:00:39.049Z,1015.52
2018-07-08T07:01:19.469Z,1015.53
2018-07-08T07:02:00.072Z,1015.57
2018-07-08T07:02:40.797Z,1015.53
2018-07-08T07:03:20.988Z,1015.53
2018-07-08T07:04:01.385Z,1015.55
2018-07-08T07:04:42.048Z,1015.55
2018-07-08T07:05:22.461Z,1015.56
2018-07-08T07:06:02.939Z,1015.57
2018-07-08T07:06:43.374Z,1015.57
2018-07-08T07:07:23.795Z,1015.56
2018-07-08T07:08:04.224Z,1015.56
2018-07-08T07:08:44.659Z,1015.59
2018-07-08T07:09:25.802Z,1015.59
2018-07-08T07:10:06.164Z,1015.58
2018-07-08T07:10:46.655Z,1015.57
2018-07-08T07:11:27.103Z,1015.54
2018-07-08T07:12:07.622Z,1015.53
2018-07-08T07:12:48.052Z,1015.55
2018-07-08T07:13:28.489Z,1015.5
2018-07-08T07:14:08.949Z,1015.51
2018-07-08T07:14:49.465Z,1015.54
2018-07-08T07:15:29.873Z,1015.54
2018-07-08T07:16:10.260Z,1015.54
2018-07-08T07:16:51.142Z,1015.49
2018-07-08T07:17:32.039Z,1015.54
2018-07-08T07:18:12.385Z,1015.55
2018-07-08T07:18:52.749Z,1015.54
2018-07-08T07:19:33.185Z,1015.53
2018-07-08T07:20:13.567Z,1015.5
2018-07-08T07:20:54.063Z,1015.52
2018-07-08T07:21:34.447Z,1015.53
2018-07-08T07:22:14.820Z,1015.55
2018-07-08T07:22:55.257Z,1015.51
2018-07-08T07:23:35.766Z,1015.52
2018-07-08T07:24:16.137Z,1015.56
2018-07-08T07:24:56.533Z,1015.57
2018-07-08T07:25:36.975Z,1015.56
2018-07-08T07:26:17.381Z,1015.5
2018-07-08T07:26:57.827Z,1015.52
2018-07-08T07:27:38.388Z,1015.58
2018-07-08T07:28:18.705Z,1015.57
2018-07-08T07:28:59.347Z,1015.6
2018-07-08T07:29:40.199Z,1015.6
2018-07-08T07:30:20.650Z,1015.56
2018-07-08T07:31:01.247Z,1015.61
2018-07-08T07:31:42.034Z,1015.59
2018-07-08T07:34:10.784Z,1015.52
2018-07-08T07:34:54.481Z,1015.54
2018-07-08T07:35:35.063Z,1015.52
2018-07-08T07:36:15.466Z,1015.53
2018-07-08T07:36:55.934Z,1015.58
2018-07-08T07:37:36.439Z,1015.53
2018-07-08T07:38:16.863Z,1015.49
2018-07-08T07:38:58.006Z,1015.54
2018-07-08T07:39:38.947Z,1015.5
2018-07-08T07:40:19.354Z,1015.51
2018-07-08T07:41:00.249Z,1015.5
2018-07-08T07:41:40.694Z,1015.46
2018-07-08T07:42:21.130Z,1015.48
2018-07-08T07:43:01.531Z,1015.49
2018-07-08T07:43:41.926Z,1015.45
2018-07-08T07:44:23.052Z,1015.47
2018-07-08T07:45:02.758Z,1015.48
2018-07-08T07:45:43.189Z,1015.42
2018-07-08T07:46:23.972Z,1015.44
2018-07-08T07:47:05.588Z,1015.43
2018-07-08T07:47:45.998Z,1015.48
2018-07-08T07:48:26.408Z,1015.46
2018-07-08T07:49:06.851Z,1015.48
2018-07-08T07:49:47.717Z,1015.47
2018-07-08T07:50:28.994Z,1015.48
2018-07-08T07:51:09.451Z,1015.47
2018-07-08T07:51:49.827Z,1015.48
2018-07-08T07:52:30.291Z,1015.49
2018-07-08T07:53:10.652Z,1015.46
2018-07-08T07:53:51.104Z,1015.46
2018-07-08T07:54:31.450Z,1015.47
2018-07-08T07:55:11.928Z,1015.47
2018-07-08T07:55:52.441Z,1015.46
2018-07-08T07:56:32.758Z,1015.52
2018-07-08T07:57:13.115Z,1015.53
2018-07-08T07:57:53.542Z,1015.52
2018-07-08T07:58:33.937Z,1015.55
2018-07-08T07:59:14.416Z,1015.54
2018-07-08T07:59:54.775Z,1015.54
2018-07-08T08:00:35.174Z,1015.53
2018-07-08T08:01:15.654Z,1015.54
2018-07-08T08:01:56.195Z,1015.54
2018-07-08T08:02:36.579Z,1015.56
2018-07-08T08:03:17.371Z,1015.58
2018-07-08T08:03:57.747Z,1015.55
2018-07-08T08:04:38.209Z,1015.56
2018-07-08T08:06:55.868Z,1015.57
2018-07-08T08:07:36.305Z,1015.57
2018-07-08T08:08:16.596Z,1015.56
2018-07-08T08:08:57.024Z,1015.61
2018-07-08T08:09:37.999Z,1015.63
2018-07-08T08:10:18.439Z,1015.6
2018-07-08T08:10:58.851Z,1015.55
2018-07-08T08:11:39.386Z,1015.61
2018-07-08T08:12:19.669Z,1015.58
2018-07-08T08:14:50.729Z,1015.59
2018-07-08T08:15:31.738Z,1015.61
2018-07-08T08:16:12.865Z,1015.57
2018-07-08T08:16:53.231Z,1015.6
2018-07-08T08:17:34.056Z,1015.58
2018-07-08T08:18:14.447Z,1015.55
2018-07-08T08:18:54.815Z,1015.64
2018-07-08T08:19:35.320Z,1015.57
2018-07-08T08:20:15.787Z,1015.61
2018-07-08T08:20:56.205Z,1015.61
2018-07-08T08:21:36.587Z,1015.59
2018-07-08T08:22:16.994Z,1015.56
2018-07-08T08:22:57.481Z,1015.53
2018-07-08T08:23:37.948Z,1015.58
2018-07-08T08:24:18.310Z,1015.61
2018-07-08T08:24:58.811Z,1015.58
2018-07-08T08:25:39.158Z,1015.59
2018-07-08T08:26:19.669Z,1015.6
2018-07-08T08:27:00.000Z,1015.61
2018-07-08T08:27:41.050Z,1015.6
2018-07-08T08:28:21.461Z,1015.58
2018-07-08T08:29:01.984Z,1015.55
2018-07-08T08:29:42.364Z,1015.56
2018-07-08T08:30:22.712Z,1015.53
2018-07-08T08:31:03.161Z,1015.57
2018-07-08T08:31:43.553Z,1015.6
2018-07-08T08:32:24.052Z,1015.55
2018-07-08T08:33:04.472Z,1015.59
2018-07-08T08:33:44.862Z,1015.58
2018-07-08T08:34:25.485Z,1015.59
2018-07-08T08:35:05.758Z,1015.61
2018-07-08T08:35:46.098Z,1015.59
2018-07-08T08:36:26.484Z,1015.56
2018-07-08T08:37:06.884Z,1015.62
2018-07-08T08:37:47.289Z,1015.54
2018-07-08T08:38:27.754Z,1015.56
2018-07-08T08:39:08.111Z,1015.53
2018-07-08T08:39:48.524Z,1015.57
2018-07-08T08:40:28.948Z,1015.55
2018-07-08T08:41:09.452Z,1015.52
2018-07-08T08:41:49.887Z,1015.58
2018-07-08T08:42:30.430Z,1015.57
2018-07-08T08:43:10.805Z,1015.6
2018-07-08T08:43:51.214Z,1015.54
2018-07-08T08:44:31.713Z,1015.55
2018-07-08T08:45:12.070Z,1015.54
2018-07-08T08:45:52.507Z,1015.57
2018-07-08T08:46:33.491Z,1015.58
2018-07-08T08:47:13.838Z,1015.59
2018-07-08T08:47:54.365Z,1015.62
2018-07-08T08:48:34.653Z,1015.64
2018-07-08T08:49:15.127Z,1015.63
2018-07-08T08:49:55.513Z,1015.6
2018-07-08T08:50:35.954Z,1015.59
2018-07-08T08:51:16.370Z,1015.59
2018-07-08T08:51:56.907Z,1015.57
2018-07-08T08:52:37.279Z,1015.58
2018-07-08T08:53:17.811Z,1015.59
2018-07-08T08:53:58.125Z,1015.56
2018-07-08T08:54:38.561Z,1015.58
2018-07-08T08:55:19.127Z,1015.62
2018-07-08T08:55:59.615Z,1015.57
2018-07-08T08:56:40.392Z,1015.59
2018-07-08T08:57:21.054Z,1015.47
2018-07-08T08:58:01.795Z,1015.5
2018-07-08T08:58:42.077Z,1015.56
2018-07-08T08:59:22.536Z,1015.49
2018-07-08T09:00:02.978Z,1015.51
2018-07-08T09:00:43.442Z,1015.57
2018-07-08T09:01:23.885Z,1015.53
2018-07-08T09:02:04.289Z,1015.55
2018-07-08T09:02:44.746Z,1015.54
2018-07-08T09:03:25.132Z,1015.51
2018-07-08T09:04:05.587Z,1015.52
2018-07-08T09:04:45.986Z,1015.52
2018-07-08T09:05:26.351Z,1015.51
2018-07-08T09:06:06.744Z,1015.47